TAF Text Data
IDs:
Format:
Raw Decoded Include METAR

Data at: 0222 UTC 29 Nov 2020

KSLN 290153Z 16006KT 10SM CLR 04/01 A3008 RMK AO2 SLP198 T00440011

KSLN 282337Z 2900/2924 21008KT P6SM SCT150
  FM291300 30015KT P6SM SCT150
  FM291500 34020G35KT P6SM FEW150


KATW 290145Z 22010KT 10SM CLR 04/M04 A2988

KATW 282320Z 2900/2924 21008KT P6SM SKC WS017/26035KT
  FM290400 24006KT P6SM SKC
  FM291500 29011G18KT P6SM BKN200
  FM292000 32012G22KT P6SM BKN035